Latest Weather Observations for Low Rocky Point

IDT60801

Issued at 7:02 pm EST Monday 24 April 2017 (issued every 30 minutes, with the page automatically refreshed every 10 minutes)

About weather observations | Map of weather stations | Latest weather observations for TAS | Other Formats
Station Details ID: 097080 Name: LOW ROCKY POINT Lat: -42.98 Lon: 145.50 Height: 34.0 m
Data from the previous 72 hours. | See also: Recent months at Low Rocky Point
Date/Time
EST
Temp
°C
App
Temp
°C
Dew
Point
°C
Rel
Hum
%
Delta-T
°C
Wind Press
QNH
hPa
Press
MSL
hPa
Rain since
9am
mm
Dir  Spd
km/h
Gust
km/h
Spd
kts
Gust
kts
24/07:00pm 14.8 12.1 14.5 98 0.2 WNW 22 26 12 14 1013.5 1013.5 0.2
24/06:30pm 14.9 12.2 14.7 99 0.1 WNW 22 26 12 14 1013.6 1013.6 0.2
24/06:00pm 14.9 12.6 14.7 99 0.1 WNW 20 26 11 14 1013.6 1013.6 0.2
24/05:30pm 15.1 12.5 14.9 99 0.1 NW 22 30 12 16 1013.8 1013.9 0.2
24/05:00pm 15.3 12.8 15.1 99 0.1 NW 22 28 12 15 1013.8 1013.8 0.2
24/04:30pm 15.2 12.3 15.0 99 0.1 NW 24 30 13 16 1014.0 1014.1 0.2
24/04:00pm 15.5 13.1 15.3 99 0.1 NW 22 26 12 14 1014.2 1014.2 0.2
24/03:30pm 15.8 13.1 15.5 98 0.2 NW 24 28 13 15 1014.2 1014.3 0.2
24/03:00pm 16.1 14.1 15.6 97 0.3 NNW 20 30 11 16 1014.4 1014.4 0.2
24/02:30pm 16.7 15.2 16.4 98 0.2 NNW 19 24 10 13 1014.5 1014.6 0.2
24/02:00pm 16.6 14.6 16.4 99 0.1 NNW 22 28 12 15 1015.0 1015.0 0.2
24/01:30pm 16.2 14.4 16.0 99 0.1 NNW 20 26 11 14 1015.4 1015.5 0.2
24/01:00pm 16.4 15.2 16.2 99 0.1 NW 17 20 9 11 1016.1 1016.0 0.2
24/12:30pm 16.4 15.2 16.2 99 0.1 NW 17 20 9 11 1016.6 1016.6 0.2
24/12:00pm 15.5 14.8 15.3 99 0.1 NNW 13 15 7 8 1017.1 1017.1 0.2
24/11:30am 15.7 15.0 15.5 99 0.1 NW 13 15 7 8 1017.5 1017.5 0.2
24/11:00am 15.4 14.6 15.2 99 0.1 NNW 13 17 7 9 1017.7 1017.7 0.2
24/10:30am 15.0 14.1 14.8 99 0.1 N 13 17 7 9 1018.2 1018.2 0.0
24/10:00am 14.6 12.8 14.4 99 0.1 N 17 24 9 13 1018.5 1018.5 0.0
24/09:30am 14.2 12.2 14.0 99 0.1 N 17 22 9 12 1018.8 1018.8 0.0
24/09:00am 13.8 12.1 13.6 99 0.1 N 15 20 8 11 1019.0 1019.0 0.4
24/08:30am 13.4 11.2 13.2 99 0.1 NNE 17 20 9 11 1019.0 1019.0 0.4
24/08:00am 13.1 10.8 12.9 99 0.1 NNE 17 20 9 11 1019.1 1019.1 0.4
24/07:30am 12.9 10.1 12.7 99 0.1 NE 19 26 10 14 1019.2 1019.2 0.2
24/07:00am 12.8 10.8 12.6 99 0.1 NE 15 20 8 11 1019.5 1019.5 0.2
24/06:30am 12.7 10.6 12.5 99 0.1 NE 15 17 8 9 1019.8 1019.8 0.2
24/06:00am 12.7 11.0 12.5 99 0.1 NE 13 17 7 9 1020.0 1020.0 0.2
24/05:30am 12.8 11.1 12.6 99 0.1 E 13 15 7 8 1020.1 1020.1 0.2
24/05:00am 12.8 10.0 12.6 99 0.1 NE 19 24 10 13 1020.1 1020.1 0.2
24/04:30am 12.9 9.9 12.7 99 0.1 NNE 20 24 11 13 1020.2 1020.2 0.0
24/04:00am 11.9 9.6 11.7 99 0.1 ENE 15 17 8 9 1020.4 1020.4 0.0
24/03:30am 11.8 9.8 11.6 99 0.1 ENE 13 19 7 10 1020.6 1020.6 0.0
24/03:00am 11.9 8.8 11.7 99 0.1 ENE 19 24 10 13 1021.0 1021.0 0.0
24/02:30am 11.4 8.6 11.2 99 0.1 NE 17 20 9 11 1021.4 1021.4 0.0
24/02:00am 11.4 10.1 11.2 99 0.1 E 9 11 5 6 1021.7 1021.7 0.0
24/01:30am 11.2 9.1 11.0 99 0.1 ENE 13 17 7 9 1021.9 1021.9 0.0
24/01:00am 11.3 8.8 11.1 99 0.1 NE 15 17 8 9 1022.3 1022.3 0.0
24/12:30am 11.0 9.2 10.8 99 0.1 ENE 11 13 6 7 1022.4 1022.4 0.0
24/12:00am 11.3 9.6 11.1 99 0.1 ESE 11 11 6 6 1022.6 1022.6 0.0
 
Date/Time
EST
Temp
°C
App
Temp
°C
Dew
Point
°C
Rel
Hum
%
Delta-T
°C
Wind Press
QNH
hPa
Press
MSL
hPa
Rain since
9am
mm
Dir  Spd
km/h
Gust
km/h
Spd
kts
Gust
kts
23/11:30pm 11.2 9.4 10.9 98 0.2 E 11 13 6 7 1023.1 1023.1 0.0
23/11:00pm 11.5 9.8 11.2 98 0.2 E 11 13 6 7 1023.3 1023.3 0.0
23/10:30pm 11.7 9.6 11.2 97 0.3 ESE 13 17 7 9 1023.5 1023.5 0.0
23/10:00pm 12.5 10.6 11.9 96 0.3 SE 13 15 7 8 1023.7 1023.7 0.0
23/09:30pm 13.1 11.4 12.5 96 0.3 SE 13 17 7 9 1023.8 1023.8 0.0
23/09:00pm 13.4 11.4 12.6 95 0.4 SE 15 17 8 9 1023.8 1023.8 0.0
23/08:30pm 13.8 11.1 12.9 94 0.5 SE 19 24 10 13 1023.8 1023.8 0.0
23/08:00pm 13.9 10.6 12.8 93 0.6 SE 22 28 12 15 1023.7 1023.7 0.0
23/07:30pm 14.0 10.3 12.7 92 0.7 SE 24 30 13 16 1023.6 1023.6 0.0
23/07:00pm 14.0 10.7 12.7 92 0.7 SE 22 30 12 16 1023.6 1023.6 0.0
23/06:30pm 14.0 9.9 12.7 92 0.7 SE 26 32 14 17 1023.7 1023.7 0.0
23/06:00pm 14.1 9.9 12.5 90 0.9 SSE 26 33 14 18 1023.6 1023.6 0.0
23/05:30pm 14.1 9.5 12.3 89 1.0 SSE 28 35 15 19 1023.5 1023.5 0.0
23/05:00pm 14.2 9.9 12.1 87 1.1 SSE 26 35 14 19 1023.5 1023.5 0.0
23/04:30pm 14.5 9.8 12.0 85 1.4 SSE 28 35 15 19 1023.6 1023.6 0.0
23/04:00pm 15.2 10.5 12.1 82 1.7 SSE 28 35 15 19 1023.7 1023.7 0.0
23/03:30pm 15.3 10.3 12.2 82 1.7 SSE 30 35 16 19 1023.8 1023.8 0.0
23/03:00pm 15.7 11.2 12.5 81 1.8 SSE 28 33 15 18 1024.0 1024.0 0.0
23/02:30pm 15.9 11.4 12.5 80 1.9 SSE 28 35 15 19 1024.0 1024.0 0.0
23/02:00pm 16.4 11.9 12.6 78 2.1 SSE 28 37 15 20 1024.1 1024.1 0.0
23/01:30pm 16.9 13.2 12.6 76 2.4 SSE 24 33 13 18 1024.2 1024.2 0.0
23/01:00pm 17.1 13.5 13.0 77 2.3 SSE 24 33 13 18 1024.4 1024.4 0.0
23/12:30pm 16.0 11.7 12.0 77 2.2 SSE 26 32 14 17 1024.5 1024.5 0.0
23/12:00pm 16.3 12.2 12.7 79 2.0 SSE 26 32 14 17 1024.9 1024.9 0.0
23/11:30am 16.4 12.4 12.9 80 1.9 SSE 26 33 14 18 1025.4 1025.4 0.0
23/11:00am 15.7 12.4 12.8 83 1.6 SSE 22 28 12 15 1025.8 1025.8 0.0
23/10:30am 15.1 10.9 12.4 84 1.5 SE 26 33 14 18 1025.6 1025.6 0.0
23/10:00am 15.0 10.5 12.7 86 1.3 SE 28 33 15 18 1025.7 1025.7 0.0
23/09:30am 14.9 10.9 12.9 88 1.1 SE 26 33 14 18 1025.8 1025.8 0.0
23/09:00am 14.2 10.8 12.6 90 0.9 SE 22 30 12 16 1025.9 1025.9 0.0
23/08:30am 13.6 9.7 12.2 91 0.8 SE 24 30 13 16 1025.9 1025.9 0.0
23/08:00am 13.5 9.6 12.2 92 0.7 SE 24 30 13 16 1025.9 1025.9 0.0
23/07:30am 13.5 10.4 12.2 92 0.7 SE 20 28 11 15 1025.6 1025.6 0.0
23/07:00am 13.4 9.9 12.3 93 0.6 SSE 22 28 12 15 1025.5 1025.5 0.0
23/06:30am 13.3 9.8 12.2 93 0.6 SE 22 30 12 16 1025.3 1025.3 0.0
23/06:00am 13.1 9.2 12.2 94 0.5 SE 24 32 13 17 1025.2 1025.2 0.0
23/05:30am 13.1 9.3 12.3 95 0.4 SSE 24 32 13 17 1025.0 1025.0 0.0
23/05:00am 13.2 9.4 12.4 95 0.4 SSE 24 30 13 16 1024.8 1024.8 0.0
23/04:30am 13.3 9.2 12.7 96 0.3 SSE 26 33 14 18 1024.7 1024.7 0.0
23/04:00am 13.2 9.5 12.7 97 0.3 SSE 24 35 13 19 1024.7 1024.7 0.0
23/03:30am 13.2 9.9 12.9 98 0.2 SSE 22 28 12 15 1024.7 1024.7 0.0
23/03:00am 12.7 9.3 12.4 98 0.2 S 22 28 12 15 1024.8 1024.8 0.0
23/02:30am 13.0 9.7 12.7 98 0.2 SSE 22 28 12 15 1024.8 1024.8 0.0
23/02:00am 13.3 10.1 13.1 99 0.1 S 22 30 12 16 1024.9 1024.9 0.0
23/01:30am 13.5 10.4 13.3 99 0.1 S 22 30 12 16 1024.9 1024.9 0.0
23/01:00am 13.8 10.8 13.6 99 0.1 S 22 28 12 15 1025.0 1025.0 0.0
23/12:30am 13.9 11.3 13.7 99 0.1 SSE 20 26 11 14 1024.8 1024.8 0.0
23/12:00am 13.9 11.3 13.7 99 0.1 SSE 20 24 11 13 1024.8 1024.8 0.0
 
Date/Time
EST
Temp
°C
App
Temp
°C
Dew
Point
°C
Rel
Hum
%
Delta-T
°C
Wind Press
QNH
hPa
Press
MSL
hPa
Rain since
9am
mm
Dir  Spd
km/h
Gust
km/h
Spd
kts
Gust
kts
22/11:30pm 13.8 11.1 13.6 99 0.1 SSE 20 26 11 14 1024.7 1024.7 0.0
22/11:00pm 14.0 11.4 13.8 99 0.1 SSE 20 26 11 14 1024.9 1024.9 0.0
22/10:30pm 14.1 11.2 13.9 99 0.1 SSE 22 30 12 16 1024.7 1024.7 0.0
22/10:00pm 14.3 11.4 14.1 99 0.1 SSE 22 30 12 16 1024.5 1024.5 0.0
22/09:30pm 14.4 11.6 14.2 99 0.1 SSE 22 30 12 16 1024.5 1024.5 0.0
22/09:00pm 14.5 10.9 14.3 99 0.1 SSE 26 32 14 17 1024.4 1024.4 0.0
22/08:30pm 14.6 11.5 14.4 99 0.1 S 24 30 13 16 1024.2 1024.2 0.0
22/08:00pm 14.7 11.6 14.5 99 0.1 SSE 24 30 13 16 1023.9 1023.9 0.0
22/07:30pm 14.9 11.9 14.7 99 0.1 S 24 33 13 18 1023.8 1023.8 0.0
22/07:00pm 14.9 12.6 14.7 99 0.1 SSE 20 24 11 13 1023.7 1023.7 0.0
22/06:30pm 15.0 13.3 14.8 99 0.1 SSE 17 22 9 12 1023.5 1023.5 0.0
22/06:00pm 14.8 12.7 14.6 99 0.1 SSE 19 24 10 13 1023.2 1023.2 0.0
22/05:30pm 14.7 12.3 14.5 99 0.1 S 20 26 11 14 1023.3 1023.3 0.0
22/05:00pm 14.9 12.6 14.7 99 0.1 S 20 28 11 15 1023.0 1023.0 0.0
22/04:30pm 14.8 12.1 14.6 99 0.1 S 22 28 12 15 1022.9 1022.9 0.0
22/04:00pm 15.2 13.2 15.0 99 0.1 S 19 22 10 12 1022.7 1022.7 0.0
22/03:30pm 15.3 14.1 15.1 99 0.1 S 15 20 8 11 1022.7 1022.7 0.0
22/03:00pm 15.3 13.7 15.1 99 0.1 S 17 22 9 12 1022.4 1022.4 0.0
22/02:30pm 15.4 13.9 15.2 99 0.1 SSW 17 20 9 11 1022.1 1022.1 0.0
22/02:00pm 15.7 15.0 15.5 99 0.1 SSW 13 19 7 10 1022.0 1022.0 0.0
22/01:30pm 15.8 15.2 15.6 99 0.1 SSW 13 15 7 8 1022.0 1022.0 0.0
22/01:00pm 16.0 16.8 15.8 99 0.1 S 6 9 3 5 1022.0 1022.0 0.0
22/12:30pm 16.0 16.8 15.8 99 0.1 SSE 6 9 3 5 1022.2 1022.2 0.0
22/12:00pm 16.1 16.7 15.9 99 0.1 ESE 7 9 4 5 1022.4 1022.4 0.0
22/11:30am 16.1 16.4 15.9 99 0.1 E 9 13 5 7 1022.6 1022.6 0.0
22/11:00am 15.8 15.6 15.6 99 0.1 E 11 13 6 7 1022.7 1022.7 0.0
22/10:30am 15.7 15.8 15.5 99 0.1 SSE 9 13 5 7 1022.9 1022.9 0.0
22/10:00am 15.4 14.6 15.2 99 0.1 SSE 13 15 7 8 1023.0 1023.0 0.0
22/09:30am 15.3 14.5 15.1 99 0.1 SSE 13 17 7 9 1023.0 1023.0 0.0
22/09:00am 15.3 14.1 15.1 99 0.1 S 15 19 8 10 1023.0 1023.0 0.0
22/08:30am 15.5 14.4 15.3 99 0.1 S 15 19 8 10 1022.9 1022.9 0.0
22/08:00am 15.7 16.2 15.5 99 0.1 SSW 7 9 4 5 1022.8 1022.8 0.0
22/07:30am 15.6 16.0 15.4 99 0.1 SSW 7 11 4 6 1022.4 1022.4 0.0
22/07:00am 15.7 16.4 15.5 99 0.1 WSW 6 7 3 4 1022.0 1022.0 0.0
22/06:30am 15.6 17.0 15.4 99 0.1 W 2 6 1 3 1021.7 1021.7 0.0
22/06:00am 15.8 15.9 15.6 99 0.1 W 9 11 5 6 1021.7 1021.7 0.0
22/05:30am 15.5 14.4 15.3 99 0.1 NW 15 19 8 10 1021.3 1021.3 0.0
22/05:00am 14.9 14.7 14.7 99 0.1 NNW 9 13 5 7 1020.9 1020.9 0.0
22/04:30am 15.2 15.1 15.0 99 0.1 NNW 9 9 5 5 1020.6 1020.6 0.0
22/04:00am 15.2 15.5 15.0 99 0.1 NW 7 7 4 4 1020.5 1020.5 0.0
22/03:30am 15.1 16.7 14.9 99 0.1 CALM 0 0 0 0 1020.3 1020.3 0.0
22/03:00am 15.2 16.8 15.0 99 0.1 CALM 0 0 0 0 1020.3 1020.3 0.0
22/02:30am 15.3 17.0 15.1 99 0.1 CALM 0 0 0 0 1020.4 1020.4 0.0
22/02:00am 15.2 16.8 15.0 99 0.1 CALM 0 0 0 0 1020.5 1020.5 0.0
22/01:30am 15.0 16.6 14.8 99 0.1 CALM 0 9 0 5 1020.6 1020.6 0.0
22/01:00am 15.2 16.4 15.0 99 0.1 NE 2 6 1 3 1020.4 1020.4 0.0
22/12:30am 14.7 14.4 14.5 99 0.1 NE 9 11 5 6 1020.5 1020.5 0.0
22/12:00am 14.7 14.4 14.5 99 0.1 E 9 11 5 6 1020.5 1020.5 0.0
 
Date/Time
EST
Temp
°C
App
Temp
°C
Dew
Point
°C
Rel
Hum
%
Delta-T
°C
Wind Press
QNH
hPa
Press
MSL
hPa
Rain since
9am
mm
Dir  Spd
km/h
Gust
km/h
Spd
kts
Gust
kts
21/11:30pm 14.6 14.3 14.4 99 0.1 E 9 9 5 5 1020.8 1020.8 0.0
21/11:00pm 15.1 15.0 14.9 99 0.1 SE 9 9 5 5 1021.0 1021.0 0.0
21/10:30pm 15.0 14.8 14.7 98 0.2 SE 9 9 5 5 1021.2 1021.2 0.0
21/10:00pm 14.8 14.5 14.5 98 0.2 E 9 13 5 7 1021.1 1021.1 0.0
21/09:30pm 15.1 14.9 14.6 97 0.3 SE 9 11 5 6 1021.2 1021.2 0.0
21/09:00pm 15.3 14.7 14.7 96 0.3 SSE 11 13 6 7 1021.1 1021.1 0.0
21/08:30pm 15.2 14.9 14.4 95 0.5 S 9 11 5 6 1021.1 1021.1 0.0
21/08:00pm 15.4 15.1 14.4 94 0.6 SW 9 11 5 6 1021.1 1021.1 0.0
21/07:30pm 15.6 15.3 14.5 93 0.6 SSE 9 11 5 6 1021.0 1021.0 0.0

Other Formats:

Comma delimited format used in spreadsheet applications
http://www.bom.gov.au/fwo/IDT60801/IDT60801.95961.axf

JavaScript Object Notation format (JSON) in row-major order
http://www.bom.gov.au/fwo/IDT60801/IDT60801.95961.json